Terminal Aerodrome Forecast
Issued by NWS Dodge City, KS

Home | Current Version | Previous Version | Graphics & Text | Print | Product List | Glossary Off
Versions: 1 2 3 4 5 6 7 8 9 10 11 12 13 14 15 16 17 18 19 20 21 22 23 24 25 26

000
FTUS43 KDDC 300521
TAFDDC
TAF
KDDC 300521Z 3006/0106 16014KT P6SM BKN040
     FM300700 18015G25KT P6SM VCTS SCT025 BKN040CB
     FM301000 19010KT P6SM BKN040
     FM301800 21014G20KT P6SM SCT040=

USA.gov is the U.S. government's official web portal to all federal, state and local government web resources and services.